createdAt,value
2023-02-16T00:01:15.964Z,68.63
2023-02-16T00:03:45.266Z,73.03
2023-02-16T00:06:16.064Z,70.83
2023-02-16T00:08:48.411Z,74.13
2023-02-16T00:11:36.592Z,69.13
2023-02-16T00:14:05.396Z,70.27
2023-02-16T00:16:33.501Z,68.20
2023-02-16T00:19:02.990Z,80.83
2023-02-16T00:21:30.642Z,71.10
2023-02-16T00:23:58.324Z,70.43
2023-02-16T00:26:27.030Z,71.05
2023-02-16T00:28:58.406Z,66.80
2023-02-16T00:31:29.231Z,69.88
2023-02-16T00:33:57.082Z,69.90
2023-02-16T00:36:26.409Z,75.43
2023-02-16T00:38:54.195Z,70.53
2023-02-16T00:41:37.528Z,69.43
2023-02-16T00:44:06.290Z,67.35
2023-02-16T00:46:34.141Z,65.32
2023-02-16T00:49:02.499Z,68.60
2023-02-16T00:51:31.559Z,72.33
2023-02-16T00:53:59.211Z,70.53
2023-02-16T00:56:26.914Z,72.20
2023-02-16T00:58:54.694Z,69.35
2023-02-16T01:01:24.956Z,73.95
2023-02-16T01:03:52.893Z,74.20
2023-02-16T01:06:38.196Z,82.18
2023-02-16T01:09:32.402Z,76.90
2023-02-16T01:12:00.418Z,89.53
2023-02-16T01:14:28.137Z,74.97
2023-02-16T01:16:55.866Z,74.85
2023-02-16T01:19:24.001Z,84.10
2023-02-16T01:21:51.692Z,83.43
2023-02-16T01:24:21.285Z,83.63
2023-02-16T01:26:50.792Z,86.90
2023-02-16T01:29:20.401Z,81.33
2023-02-16T01:31:50.606Z,79.13
2023-02-16T01:34:18.571Z,87.77
2023-02-16T01:36:48.638Z,79.73
2023-02-16T01:39:18.025Z,84.60
2023-02-16T01:41:57.389Z,86.37
2023-02-16T01:44:30.510Z,94.50
2023-02-16T01:47:03.843Z,91.93
2023-02-16T01:49:32.579Z,93.47
2023-02-16T01:52:05.299Z,93.68
2023-02-16T01:54:37.119Z,98.70
2023-02-16T01:57:13.227Z,103.93
2023-02-16T02:00:11.637Z,105.55
2023-02-16T02:02:44.902Z,98.57
2023-02-16T02:05:36.259Z,98.50
2023-02-16T02:08:16.157Z,122.93
2023-02-16T02:10:55.440Z,104.18
2023-02-16T02:13:30.688Z,109.78
2023-02-16T02:15:59.760Z,106.47
2023-02-16T02:18:28.225Z,113.72
2023-02-16T02:21:28.973Z,114.67
2023-02-16T02:24:35.144Z,120.38
2023-02-16T02:27:17.595Z,101.40
2023-02-16T02:30:17.226Z,114.15
2023-02-16T02:33:08.363Z,106.50
2023-02-16T02:35:45.114Z,115.23
2023-02-16T02:38:17.926Z,122.75
2023-02-16T02:40:55.782Z,109.65
2023-02-16T02:43:28.926Z,102.03
2023-02-16T02:46:00.730Z,114.47
2023-02-16T02:48:31.251Z,130.23
2023-02-16T02:51:18.277Z,123.32
2023-02-16T02:53:48.734Z,116.65
2023-02-16T02:56:35.900Z,114.45
2023-02-16T02:59:26.056Z,113.68
2023-02-16T03:01:56.907Z,107.35
2023-02-16T03:04:26.931Z,120.05
2023-02-16T03:06:57.978Z,114.68
2023-02-16T03:09:26.759Z,114.38
2023-02-16T03:12:13.182Z,127.40
2023-02-16T03:14:44.537Z,115.45
2023-02-16T03:17:32.556Z,107.00
2023-02-16T03:20:19.979Z,115.70
2023-02-16T03:23:05.991Z,121.07
2023-02-16T03:25:54.338Z,119.90
2023-02-16T03:28:43.615Z,102.82
2023-02-16T03:31:16.199Z,120.00
2023-02-16T03:33:44.297Z,115.10
2023-02-16T03:36:12.257Z,122.97
2023-02-16T03:38:40.158Z,120.00
2023-02-16T03:41:07.882Z,126.35
2023-02-16T03:43:35.566Z,124.40
2023-02-16T03:46:03.616Z,121.50
2023-02-16T03:48:32.634Z,134.00
2023-02-16T03:51:00.277Z,122.57
2023-02-16T03:53:28.291Z,120.80
2023-02-16T03:55:55.969Z,122.60
2023-02-16T03:58:25.313Z,120.53
2023-02-16T04:00:53.327Z,120.15
2023-02-16T04:03:21.104Z,129.82
2023-02-16T04:05:50.320Z,132.10
2023-02-16T04:08:18.130Z,123.07
2023-02-16T04:10:45.853Z,126.38
2023-02-16T04:13:12.564Z,112.30
2023-02-16T04:15:41.184Z,115.78
2023-02-16T04:18:09.020Z,114.50
2023-02-16T04:20:37.162Z,133.63
2023-02-16T04:23:06.328Z,125.60
2023-02-16T04:25:34.150Z,118.75
2023-02-16T04:28:01.849Z,122.90
2023-02-16T04:30:32.072Z,115.65
2023-02-16T04:33:00.212Z,115.38
2023-02-16T04:35:28.065Z,108.45
2023-02-16T04:37:55.707Z,125.38
2023-02-16T04:40:25.155Z,121.75
2023-02-16T04:42:52.935Z,122.70
2023-02-16T04:45:20.852Z,116.72
2023-02-16T04:47:48.496Z,128.93
2023-02-16T04:50:16.109Z,125.70
2023-02-16T04:52:43.868Z,117.75
2023-02-16T04:55:11.564Z,126.35
2023-02-16T04:57:41.107Z,122.65
2023-02-16T05:00:11.630Z,125.00
2023-02-16T05:02:39.487Z,132.45
2023-02-16T05:05:08.144Z,126.25
2023-02-16T05:07:36.139Z,130.90
2023-02-16T05:10:03.915Z,127.82
2023-02-16T05:12:49.291Z,133.50
2023-02-16T05:15:18.369Z,130.80
2023-02-16T05:17:46.441Z,126.70
2023-02-16T05:20:14.531Z,135.93
2023-02-16T05:22:43.434Z,137.47
2023-02-16T05:25:11.083Z,140.23
2023-02-16T05:27:39.348Z,136.27
2023-02-16T05:30:08.142Z,130.23
2023-02-16T05:32:37.272Z,130.50
2023-02-16T05:35:05.320Z,129.15
2023-02-16T05:37:32.989Z,128.98
2023-02-16T05:40:00.732Z,126.22
2023-02-16T05:42:28.948Z,123.40
2023-02-16T05:44:56.664Z,122.03
2023-02-16T05:47:24.387Z,138.33
2023-02-16T05:49:53.390Z,129.18
2023-02-16T05:52:21.467Z,130.57
2023-02-16T05:54:49.638Z,132.20
2023-02-16T05:57:17.302Z,119.18
2023-02-16T05:59:44.974Z,130.98
2023-02-16T06:02:12.656Z,134.35
2023-02-16T06:04:40.387Z,116.82
2023-02-16T06:07:09.810Z,128.73
2023-02-16T06:09:37.459Z,129.48
2023-02-16T06:12:05.842Z,125.13
2023-02-16T06:14:33.801Z,119.05
2023-02-16T06:17:01.501Z,129.75
2023-02-16T06:19:29.245Z,127.47
2023-02-16T06:21:56.990Z,128.15
2023-02-16T06:24:26.284Z,129.30
2023-02-16T06:41:37.741Z,113.85
2023-02-16T06:44:08.203Z,113.90
2023-02-16T06:46:36.074Z,115.88
2023-02-16T06:49:03.791Z,120.10
2023-02-16T06:51:31.464Z,116.53
2023-02-16T06:53:59.097Z,107.32
2023-02-16T06:56:26.979Z,110.78
2023-02-16T06:58:56.021Z,114.50
2023-02-16T07:01:25.561Z,119.20
2023-02-16T07:03:54.878Z,115.00
2023-02-16T07:06:24.136Z,109.63
2023-02-16T07:08:52.574Z,109.32
2023-02-16T07:11:20.392Z,116.60
2023-02-16T07:13:48.678Z,109.50
2023-02-16T07:16:17.780Z,109.97
2023-02-16T07:18:46.521Z,119.65
2023-02-16T07:21:14.610Z,105.28
2023-02-16T07:23:42.323Z,115.78
2023-02-16T07:26:10.185Z,103.90
2023-02-16T07:28:38.003Z,108.97
2023-02-16T07:31:10.976Z,117.25
2023-02-16T07:33:40.625Z,106.95
2023-02-16T07:36:09.246Z,104.00
2023-02-16T07:38:37.000Z,98.82
2023-02-16T07:41:08.634Z,101.57
2023-02-16T07:43:37.180Z,99.30
2023-02-16T07:46:05.316Z,97.07
2023-02-16T07:48:33.013Z,99.68
2023-02-16T07:51:03.027Z,104.13
2023-02-16T07:53:31.399Z,103.70
2023-02-16T07:55:59.110Z,97.57
2023-02-16T07:58:30.436Z,95.22
2023-02-16T08:01:06.845Z,96.35
2023-02-16T08:03:34.854Z,95.72
2023-02-16T08:06:04.121Z,90.28
2023-02-16T08:08:32.826Z,94.72
2023-02-16T08:11:00.824Z,82.72
2023-02-16T08:13:28.544Z,93.05
2023-02-16T08:15:56.166Z,84.07
2023-02-16T08:18:24.309Z,83.47
2023-02-16T08:21:03.652Z,90.25
2023-02-16T08:23:33.848Z,85.18
2023-02-16T08:26:09.797Z,78.10
2023-02-16T08:28:39.153Z,78.20
2023-02-16T08:31:07.530Z,77.65
2023-02-16T08:33:35.404Z,75.00
2023-02-16T08:36:04.702Z,76.97
2023-02-16T08:38:34.307Z,76.95
2023-02-16T08:41:02.526Z,84.07
2023-02-16T08:43:30.293Z,77.65
2023-02-16T08:45:58.005Z,77.97
2023-02-16T08:48:28.761Z,75.55
2023-02-16T08:50:56.485Z,72.35
2023-02-16T08:53:25.261Z,78.72
2023-02-16T08:55:55.532Z,75.28
2023-02-16T08:58:23.567Z,73.10
2023-02-16T09:00:51.755Z,70.00
2023-02-16T09:03:20.003Z,78.70
2023-02-16T09:05:48.507Z,70.32
2023-02-16T09:08:16.648Z,61.45
2023-02-16T09:10:44.815Z,65.45
2023-02-16T09:13:18.453Z,62.90
2023-02-16T09:15:47.263Z,62.33
2023-02-16T09:18:16.515Z,67.05
2023-02-16T09:20:46.928Z,58.22
2023-02-16T09:23:14.882Z,58.80
2023-02-16T09:25:42.747Z,61.55
2023-02-16T09:28:11.565Z,58.60
2023-02-16T09:30:41.131Z,55.80
2023-02-16T09:33:09.174Z,58.22
2023-02-16T09:35:39.623Z,59.72
2023-02-16T09:38:07.937Z,54.25
2023-02-16T09:40:37.290Z,52.35
2023-02-16T09:43:10.017Z,58.80
2023-02-16T09:45:45.921Z,56.75
2023-02-16T09:48:23.452Z,55.10
2023-02-16T09:50:54.942Z,56.78
2023-02-16T09:53:29.087Z,52.47
2023-02-16T09:56:03.379Z,57.45
2023-02-16T09:58:34.922Z,53.88
2023-02-16T10:01:08.782Z,52.10
2023-02-16T10:03:46.390Z,60.33
2023-02-16T10:06:28.838Z,53.35
2023-02-16T10:08:58.991Z,63.38
2023-02-16T10:11:46.782Z,54.63
2023-02-16T10:14:23.925Z,50.03
2023-02-16T10:16:59.235Z,57.08
2023-02-16T10:19:30.159Z,60.15
2023-02-16T10:22:00.642Z,57.03
2023-02-16T10:24:32.565Z,54.53
2023-02-16T10:27:04.209Z,60.72
2023-02-16T10:29:31.910Z,63.75
2023-02-16T10:32:13.426Z,52.28
2023-02-16T10:34:50.298Z,60.30
2023-02-16T10:37:30.096Z,58.20
2023-02-16T10:40:10.305Z,56.58
2023-02-16T10:42:41.978Z,62.05
2023-02-16T10:45:20.273Z,58.83
2023-02-16T10:47:49.653Z,63.60
2023-02-16T10:50:23.400Z,50.17
2023-02-16T10:52:51.444Z,53.45
2023-02-16T10:55:19.406Z,52.72
2023-02-16T10:57:52.253Z,54.92
2023-02-16T11:00:25.477Z,55.65
2023-02-16T11:02:54.678Z,53.33
2023-02-16T11:05:37.992Z,52.03
2023-02-16T11:08:08.235Z,53.08
2023-02-16T11:10:42.747Z,51.03
2023-02-16T11:13:25.986Z,53.60
2023-02-16T11:15:55.921Z,54.63
2023-02-16T11:18:34.942Z,51.72
2023-02-16T11:21:04.144Z,54.47
2023-02-16T11:23:33.062Z,47.58
2023-02-16T11:26:03.853Z,50.08
2023-02-16T11:28:34.085Z,48.70
2023-02-16T11:31:06.743Z,51.40
2023-02-16T11:33:37.757Z,49.97
2023-02-16T11:36:20.233Z,51.38
2023-02-16T11:38:57.690Z,47.08
2023-02-16T11:41:26.514Z,56.30
2023-02-16T11:43:54.765Z,50.97
2023-02-16T11:46:24.647Z,46.20
2023-02-16T11:48:56.819Z,45.55
2023-02-16T11:51:34.354Z,54.25
2023-02-16T11:54:05.192Z,49.45
2023-02-16T11:56:34.512Z,53.57
2023-02-16T11:59:08.763Z,51.60
2023-02-16T12:02:10.667Z,49.78
2023-02-16T12:04:53.611Z,52.40
2023-02-16T12:07:29.634Z,49.25
2023-02-16T12:10:02.557Z,53.78
2023-02-16T12:12:34.238Z,52.88
2023-02-16T12:15:08.931Z,54.33
2023-02-16T12:17:45.764Z,52.05
2023-02-16T12:20:27.175Z,51.88
2023-02-16T12:23:00.861Z,54.63
2023-02-16T12:25:32.778Z,54.97
2023-02-16T12:28:07.832Z,52.33
2023-02-16T12:30:44.771Z,51.97
2023-02-16T12:33:32.273Z,53.25
2023-02-16T12:36:39.000Z,51.67
2023-02-16T12:39:17.972Z,55.22
2023-02-16T12:41:56.400Z,56.15
2023-02-16T12:44:31.911Z,56.83
2023-02-16T12:47:03.517Z,51.40
2023-02-16T12:49:34.868Z,54.42
2023-02-16T12:52:05.356Z,57.13
2023-02-16T12:54:39.963Z,57.67
2023-02-16T12:57:11.056Z,60.33
2023-02-16T12:59:43.072Z,61.00
2023-02-16T13:02:16.263Z,58.78
2023-02-16T13:04:48.614Z,57.72
2023-02-16T13:07:22.606Z,63.45
2023-02-16T13:09:58.879Z,65.35
2023-02-16T13:12:31.949Z,60.78
2023-02-16T13:15:07.932Z,68.53
2023-02-16T13:17:37.913Z,58.55
2023-02-16T13:20:14.715Z,59.55
2023-02-16T13:23:05.202Z,61.47
2023-02-16T13:25:57.911Z,58.90
2023-02-16T13:28:40.601Z,66.47
2023-02-16T13:31:22.332Z,61.90
2023-02-16T13:33:58.536Z,66.60
2023-02-16T13:36:55.394Z,64.88
2023-02-16T13:39:48.555Z,67.65
2023-02-16T13:42:32.907Z,72.97
2023-02-16T13:45:01.974Z,71.03
2023-02-16T13:47:31.958Z,66.40
2023-02-16T13:50:01.400Z,74.68
2023-02-16T13:52:32.332Z,72.72
2023-02-16T13:55:01.535Z,73.47
2023-02-16T13:57:58.286Z,73.03
2023-02-16T14:00:29.969Z,74.65
2023-02-16T14:03:00.628Z,69.53
2023-02-16T14:05:32.111Z,69.78
2023-02-16T14:08:20.772Z,75.05
2023-02-16T14:11:15.631Z,72.75
2023-02-16T14:13:52.075Z,78.55
2023-02-16T14:16:34.055Z,77.47
2023-02-16T14:19:04.965Z,76.88
2023-02-16T14:21:37.194Z,79.13
2023-02-16T14:24:06.572Z,83.93
2023-02-16T14:26:52.146Z,72.00
2023-02-16T14:29:22.733Z,79.28
2023-02-16T14:31:55.627Z,79.03
2023-02-16T14:34:28.615Z,80.38
2023-02-16T14:37:28.999Z,80.63
2023-02-16T14:40:08.655Z,82.80
2023-02-16T14:42:36.991Z,75.10
2023-02-16T14:45:22.240Z,91.63
2023-02-16T14:47:56.833Z,76.03
2023-02-16T14:50:35.196Z,80.72
2023-02-16T14:53:42.355Z,78.88
2023-02-16T14:56:28.409Z,82.10
2023-02-16T14:58:58.925Z,80.00
2023-02-16T15:01:28.088Z,76.93
2023-02-16T15:03:58.063Z,82.28
2023-02-16T15:06:32.147Z,75.70
2023-02-16T15:09:01.017Z,84.30
2023-02-16T15:11:34.872Z,80.53
2023-02-16T15:14:05.619Z,83.75
2023-02-16T15:16:35.507Z,104.35
2023-02-16T15:19:09.640Z,95.53
2023-02-16T15:21:37.428Z,93.38
2023-02-16T15:24:07.666Z,87.50
2023-02-16T15:26:38.197Z,87.30
2023-02-16T15:29:22.749Z,81.88
2023-02-16T15:31:51.986Z,88.25
2023-02-16T15:34:28.606Z,82.03
2023-02-16T15:36:57.306Z,82.65
2023-02-16T15:39:41.321Z,79.88
2023-02-16T15:42:21.569Z,79.43
2023-02-16T15:44:49.358Z,83.07
2023-02-16T15:47:22.854Z,86.93
2023-02-16T15:49:50.982Z,86.88
2023-02-16T15:52:21.595Z,87.47
2023-02-16T15:54:50.762Z,83.43
2023-02-16T15:57:21.437Z,82.03
2023-02-16T15:59:50.288Z,93.30
2023-02-16T16:02:20.786Z,96.53
2023-02-16T16:04:54.905Z,86.45
2023-02-16T16:07:27.580Z,91.55
2023-02-16T16:09:57.633Z,94.57
2023-02-16T16:12:26.283Z,81.28
2023-02-16T16:14:56.475Z,81.75
2023-02-16T16:17:30.060Z,87.00
2023-02-16T16:19:58.555Z,82.05
2023-02-16T16:22:34.214Z,81.05
2023-02-16T16:25:02.895Z,96.55
2023-02-16T16:27:32.938Z,81.03
2023-02-16T16:30:27.302Z,80.15
2023-02-16T16:33:05.223Z,83.68
2023-02-16T16:35:38.165Z,76.30
2023-02-16T16:38:07.127Z,84.75
2023-02-16T16:40:36.333Z,78.40
2023-02-16T16:43:10.284Z,82.88
2023-02-16T16:45:39.868Z,83.32
2023-02-16T16:48:18.500Z,75.93
2023-02-16T16:50:47.873Z,84.38
2023-02-16T16:53:42.852Z,83.88
2023-02-16T16:56:12.642Z,77.82
2023-02-16T16:58:40.863Z,75.05
2023-02-16T17:01:09.977Z,72.38
2023-02-16T17:03:38.999Z,88.70
2023-02-16T17:06:08.337Z,83.22
2023-02-16T17:08:36.253Z,77.70
2023-02-16T17:11:04.716Z,82.43
2023-02-16T17:13:33.426Z,78.50
2023-02-16T17:16:04.006Z,77.47
2023-02-16T17:18:31.911Z,81.20
2023-02-16T17:21:00.954Z,80.68
2023-02-16T17:23:28.751Z,81.10
2023-02-16T17:25:56.486Z,78.38
2023-02-16T17:28:25.432Z,77.65
2023-02-16T17:30:53.175Z,77.82
2023-02-16T17:33:20.912Z,76.72
2023-02-16T17:35:48.534Z,81.97
2023-02-16T17:38:21.400Z,77.13
2023-02-16T17:40:49.183Z,85.53
2023-02-16T17:43:18.244Z,85.25
2023-02-16T17:45:46.898Z,102.05
2023-02-16T17:48:16.968Z,84.57
2023-02-16T17:50:45.273Z,91.70
2023-02-16T17:53:14.527Z,80.15
2023-02-16T17:55:44.014Z,85.55
2023-02-16T17:58:12.390Z,95.75
2023-02-16T18:00:40.556Z,86.32
2023-02-16T18:03:08.516Z,84.00
2023-02-16T18:05:36.862Z,90.75
2023-02-16T18:08:05.220Z,85.85
2023-02-16T18:10:35.170Z,88.35
2023-02-16T18:13:04.774Z,85.60
2023-02-16T18:15:32.618Z,81.20
2023-02-16T18:18:00.482Z,89.30
2023-02-16T18:20:28.724Z,94.97
2023-02-16T18:22:56.922Z,86.70
2023-02-16T18:25:25.147Z,89.18
2023-02-16T18:27:52.824Z,86.25
2023-02-16T18:30:22.284Z,79.40
2023-02-16T18:32:50.533Z,85.70
2023-02-16T18:35:18.918Z,88.63
2023-02-16T18:37:47.597Z,87.07
2023-02-16T18:40:17.779Z,84.75
2023-02-16T18:42:45.815Z,91.35
2023-02-16T18:45:13.432Z,88.07
2023-02-16T18:47:44.227Z,87.72
2023-02-16T18:50:12.624Z,92.82
2023-02-16T18:52:42.267Z,89.35
2023-02-16T18:55:10.598Z,96.25
2023-02-16T18:57:38.595Z,83.55
2023-02-16T19:00:07.459Z,84.93
2023-02-16T19:02:36.000Z,81.57
2023-02-16T19:05:06.922Z,85.80
2023-02-16T19:07:34.955Z,79.18
2023-02-16T19:10:03.221Z,82.10
2023-02-16T19:12:31.154Z,80.68
2023-02-16T19:14:58.827Z,71.53
2023-02-16T19:17:27.346Z,65.80
2023-02-16T19:19:55.108Z,66.90
2023-02-16T19:22:24.210Z,60.53
2023-02-16T19:24:51.938Z,62.45
2023-02-16T19:27:19.829Z,66.60
2023-02-16T19:29:48.090Z,70.53
2023-02-16T19:32:15.763Z,71.25
2023-02-16T19:34:43.805Z,80.22
2023-02-16T19:37:11.983Z,78.75
2023-02-16T19:39:41.034Z,80.57
2023-02-16T19:42:08.924Z,80.47
2023-02-16T19:44:36.835Z,69.55
2023-02-16T19:47:04.665Z,81.45
2023-02-16T19:49:33.228Z,66.45
2023-02-16T19:52:02.703Z,76.43
2023-02-16T19:54:32.335Z,81.65
2023-02-16T19:57:01.662Z,73.93
2023-02-16T19:59:29.399Z,81.47
2023-02-16T20:01:58.162Z,72.47
2023-02-16T20:04:25.868Z,75.25
2023-02-16T20:06:54.626Z,72.25
2023-02-16T20:09:23.280Z,72.30
2023-02-16T20:11:51.548Z,71.97
2023-02-16T20:14:21.218Z,70.63
2023-02-16T20:16:50.055Z,67.47
2023-02-16T20:19:17.810Z,69.38
2023-02-16T20:21:46.337Z,78.70
2023-02-16T20:24:14.191Z,77.00
2023-02-16T20:26:43.648Z,70.90
2023-02-16T20:29:13.153Z,72.35
2023-02-16T20:31:44.806Z,66.30
2023-02-16T20:34:12.910Z,76.90
2023-02-16T20:36:40.916Z,74.60
2023-02-16T20:39:09.675Z,69.53
2023-02-16T20:41:37.923Z,73.10
2023-02-16T20:44:06.455Z,71.60
2023-02-16T20:46:34.301Z,76.60
2023-02-16T20:49:04.481Z,70.15
2023-02-16T20:51:32.449Z,67.57
2023-02-16T20:54:01.270Z,70.10
2023-02-16T20:56:29.535Z,71.05
2023-02-16T20:58:58.452Z,65.25
2023-02-16T21:01:29.079Z,68.40
2023-02-16T21:03:58.594Z,68.28
2023-02-16T21:06:28.240Z,67.97
2023-02-16T21:08:56.927Z,68.40
2023-02-16T21:11:25.424Z,69.25
2023-02-16T21:13:53.306Z,62.90
2023-02-16T21:16:22.596Z,64.13
2023-02-16T21:18:50.796Z,62.85
2023-02-16T21:21:18.895Z,60.00
2023-02-16T21:23:50.265Z,61.85
2023-02-16T21:26:19.706Z,65.72
2023-02-16T21:28:47.752Z,63.33
2023-02-16T21:31:17.760Z,64.93
2023-02-16T21:33:46.405Z,63.15
2023-02-16T21:36:16.993Z,67.97
2023-02-16T21:38:45.004Z,66.53
2023-02-16T21:41:28.536Z,63.97
2023-02-16T21:44:00.611Z,59.35
2023-02-16T21:46:29.986Z,61.40
2023-02-16T21:48:57.416Z,60.47
2023-02-16T21:51:27.984Z,58.78
2023-02-16T21:53:56.590Z,58.05
2023-02-16T21:56:29.243Z,59.05
2023-02-16T21:58:57.149Z,54.75
2023-02-16T22:01:27.729Z,55.65
2023-02-16T22:03:58.493Z,57.65
2023-02-16T22:06:27.861Z,56.33
2023-02-16T22:08:55.927Z,58.45
2023-02-16T22:11:23.752Z,58.75
2023-02-16T22:13:55.783Z,56.47
2023-02-16T22:16:24.448Z,53.65
2023-02-16T22:18:57.247Z,52.72
2023-02-16T22:21:25.273Z,51.25
2023-02-16T22:23:52.940Z,52.33
2023-02-16T22:26:22.622Z,52.25
2023-02-16T22:28:50.678Z,52.67
2023-02-16T22:31:20.388Z,52.65
2023-02-16T22:33:48.804Z,49.25
2023-02-16T22:36:16.737Z,47.63
2023-02-16T22:38:45.085Z,48.72
2023-02-16T22:41:13.126Z,49.60
2023-02-16T22:43:42.611Z,51.85
2023-02-16T22:46:13.795Z,48.90
2023-02-16T22:48:43.156Z,46.88
2023-02-16T22:51:13.227Z,47.03
2023-02-16T22:53:40.981Z,51.65
2023-02-16T22:56:10.347Z,47.95
2023-02-16T22:58:38.052Z,52.65
2023-02-16T23:01:12.044Z,46.90
2023-02-16T23:03:40.538Z,53.25
2023-02-16T23:06:14.578Z,53.40
2023-02-16T23:08:42.580Z,50.42
2023-02-16T23:11:10.237Z,53.65
2023-02-16T23:13:38.337Z,49.75
2023-02-16T23:16:08.045Z,48.85
2023-02-16T23:18:35.869Z,50.72
2023-02-16T23:21:08.014Z,50.85
2023-02-16T23:23:37.144Z,48.15
2023-02-16T23:26:06.970Z,50.97
2023-02-16T23:28:35.105Z,52.25
2023-02-16T23:31:02.811Z,50.20
2023-02-16T23:33:30.885Z,50.83
2023-02-16T23:35:58.832Z,51.50
2023-02-16T23:38:26.753Z,48.88
2023-02-16T23:40:59.824Z,49.30
2023-02-16T23:43:27.685Z,45.30
2023-02-16T23:45:55.599Z,46.22
2023-02-16T23:48:23.862Z,50.85
2023-02-16T23:50:52.153Z,44.58
2023-02-16T23:53:20.594Z,44.50
2023-02-16T23:55:59.272Z,45.55
2023-02-16T23:58:28.188Z,45.05
